createdAt,value
2017-07-31T03:58:51.037Z,83.0
2017-07-31T03:59:52.450Z,82.9
2017-07-31T04:01:13.957Z,83.1
2017-07-31T04:02:15.392Z,83.1
2017-07-31T04:03:36.886Z,82.8
2017-07-31T04:04:38.299Z,82.4
2017-07-31T04:05:59.798Z,82.4
2017-07-31T04:07:01.212Z,82.5
2017-07-31T04:08:22.734Z,81.8
2017-07-31T04:09:24.149Z,81.2
2017-07-31T04:10:45.656Z,80.3
2017-07-31T04:11:47.067Z,79.7
2017-07-31T04:13:08.589Z,79.1
2017-07-31T04:14:10.004Z,77.5
2017-07-31T04:15:31.504Z,76.8
2017-07-31T04:16:32.917Z,76.2
2017-07-31T04:17:54.417Z,75.8
2017-07-31T04:18:55.831Z,75.4
2017-07-31T04:20:17.351Z,74.8
2017-07-31T04:21:18.766Z,74.9
2017-07-31T04:22:40.267Z,74.9
2017-07-31T04:23:41.682Z,74.1
2017-07-31T04:25:03.205Z,74.6
2017-07-31T04:26:04.619Z,74.5
2017-07-31T04:27:26.120Z,74.7
2017-07-31T04:28:27.534Z,74.9
2017-07-31T04:29:49.055Z,74.6
2017-07-31T04:30:50.473Z,75.0
2017-07-31T04:32:11.976Z,74.6
2017-07-31T04:33:13.389Z,74.2
2017-07-31T04:34:34.915Z,73.3
2017-07-31T04:35:36.331Z,72.5
2017-07-31T04:36:57.839Z,71.7
2017-07-31T04:37:59.251Z,70.0
2017-07-31T04:39:20.776Z,69.8
2017-07-31T04:40:22.195Z,68.8
2017-07-31T04:41:43.705Z,67.5
2017-07-31T04:42:45.119Z,67.2
2017-07-31T04:44:06.645Z,65.5
2017-07-31T04:45:08.063Z,64.4
2017-07-31T04:46:29.569Z,64.3
2017-07-31T04:47:30.985Z,63.4
2017-07-31T04:48:52.510Z,62.5
2017-07-31T04:49:53.928Z,62.5
2017-07-31T04:51:15.446Z,61.5
2017-07-31T04:52:16.858Z,61.2
2017-07-31T04:53:38.388Z,60.9
2017-07-31T04:54:39.806Z,60.2
2017-07-31T04:56:01.319Z,60.6
2017-07-31T04:57:02.738Z,60.0
2017-07-31T04:58:24.272Z,60.5
2017-07-31T04:59:25.688Z,59.3
2017-07-31T05:00:47.205Z,59.0
2017-07-31T05:01:48.623Z,59.6
2017-07-31T05:03:10.131Z,58.6
2017-07-31T05:04:11.551Z,58.5
2017-07-31T05:05:33.082Z,57.4
2017-07-31T05:06:34.501Z,56.8
2017-07-31T05:07:56.013Z,56.7
2017-07-31T05:08:57.437Z,55.4
2017-07-31T05:10:18.965Z,54.1
2017-07-31T05:11:20.384Z,54.3
2017-07-31T05:12:41.899Z,53.6
2017-07-31T05:13:43.322Z,53.4
2017-07-31T05:15:04.852Z,53.5
2017-07-31T05:16:06.272Z,53.7
2017-07-31T05:17:27.784Z,53.7
2017-07-31T05:18:29.203Z,53.7
2017-07-31T05:19:50.740Z,54.5
2017-07-31T05:20:52.161Z,54.0
2017-07-31T05:22:13.673Z,53.5
2017-07-31T05:23:15.095Z,53.1
2017-07-31T05:24:36.630Z,53.7
2017-07-31T05:25:38.052Z,52.6
2017-07-31T05:26:59.568Z,52.5
2017-07-31T05:28:00.989Z,52.4
2017-07-31T05:29:22.526Z,53.1
2017-07-31T05:30:23.941Z,52.4
2017-07-31T05:31:45.451Z,53.7
2017-07-31T05:32:46.872Z,53.6
2017-07-31T05:34:08.400Z,54.1
2017-07-31T05:35:09.823Z,54.6
2017-07-31T05:36:31.333Z,55.4
2017-07-31T05:37:32.757Z,56.7
2017-07-31T05:38:54.286Z,56.7
2017-07-31T05:39:55.712Z,58.2
2017-07-31T05:41:17.220Z,58.5
2017-07-31T05:42:18.641Z,58.6
2017-07-31T05:43:40.175Z,59.9
2017-07-31T05:44:41.594Z,59.8
2017-07-31T05:46:03.106Z,60.6
2017-07-31T05:47:04.525Z,61.5
2017-07-31T05:48:26.038Z,61.5
2017-07-31T05:49:27.460Z,61.6
2017-07-31T05:50:48.992Z,62.1
2017-07-31T05:51:50.410Z,62.5
2017-07-31T05:53:11.931Z,62.1
2017-07-31T05:54:13.353Z,62.6
2017-07-31T05:55:34.890Z,62.0
2017-07-31T05:56:36.317Z,60.7
2017-07-31T05:57:57.829Z,60.2
2017-07-31T05:58:59.251Z,60.3
2017-07-31T06:00:20.791Z,59.6
2017-07-31T06:01:22.212Z,60.6
2017-07-31T06:02:43.730Z,60.3
2017-07-31T06:03:45.149Z,60.0
2017-07-31T06:05:06.683Z,59.4
2017-07-31T06:06:08.103Z,58.6
2017-07-31T06:07:29.623Z,57.5
2017-07-31T06:08:31.045Z,56.5
2017-07-31T06:09:52.578Z,55.8
2017-07-31T06:10:54.002Z,54.7
2017-07-31T06:12:15.527Z,53.1
2017-07-31T06:13:16.950Z,53.7
2017-07-31T06:14:38.489Z,53.8
2017-07-31T06:15:39.911Z,54.6
2017-07-31T06:17:01.429Z,53.8
2017-07-31T06:18:02.853Z,53.8
2017-07-31T06:19:24.391Z,53.3
2017-07-31T06:20:25.814Z,54.0
2017-07-31T06:21:47.333Z,54.2
2017-07-31T06:22:48.759Z,53.6
2017-07-31T06:24:10.294Z,52.8
2017-07-31T06:25:11.720Z,50.5
2017-07-31T06:26:33.239Z,50.4
2017-07-31T06:27:34.664Z,50.1
2017-07-31T06:28:56.175Z,50.2
2017-07-31T06:29:57.600Z,50.1
2017-07-31T06:31:19.137Z,50.6
2017-07-31T06:32:20.565Z,51.6
2017-07-31T06:33:42.084Z,51.3
2017-07-31T06:34:43.510Z,50.4
2017-07-31T06:36:05.048Z,50.1
2017-07-31T06:37:06.475Z,49.9
2017-07-31T06:38:27.993Z,49.8
2017-07-31T06:39:29.418Z,49.2
2017-07-31T06:40:50.964Z,49.4
2017-07-31T06:41:52.390Z,48.9
2017-07-31T06:43:13.909Z,50.8
2017-07-31T06:44:15.335Z,51.6
2017-07-31T06:45:36.876Z,50.9
2017-07-31T06:46:38.301Z,51.3
2017-07-31T06:47:59.824Z,51.2
2017-07-31T06:49:01.251Z,51.2
2017-07-31T06:50:22.788Z,50.0
2017-07-31T06:51:24.232Z,50.1
2017-07-31T06:52:45.738Z,51.1
2017-07-31T06:53:47.166Z,50.3
2017-07-31T06:55:08.705Z,52.1
2017-07-31T06:56:10.132Z,52.7
2017-07-31T06:57:31.656Z,51.1
2017-07-31T06:58:33.083Z,52.3
2017-07-31T06:59:54.619Z,53.7
2017-07-31T07:00:56.046Z,54.0
2017-07-31T07:02:17.570Z,54.3
2017-07-31T07:03:18.997Z,53.5
2017-07-31T07:04:40.536Z,51.5
2017-07-31T07:05:41.961Z,53.1
2017-07-31T07:07:03.491Z,53.4
2017-07-31T07:08:04.918Z,52.5
2017-07-31T07:09:26.462Z,54.4
2017-07-31T07:10:27.888Z,55.5
2017-07-31T07:11:49.413Z,55.0
2017-07-31T07:12:50.843Z,53.3
2017-07-31T07:14:12.361Z,53.1
2017-07-31T07:15:13.789Z,53.5
2017-07-31T07:16:35.326Z,53.1
2017-07-31T07:17:36.754Z,53.1
2017-07-31T07:18:58.277Z,53.6
2017-07-31T07:19:59.702Z,53.9
2017-07-31T07:21:21.243Z,55.3
2017-07-31T07:22:22.667Z,55.7
2017-07-31T07:23:44.188Z,53.9
2017-07-31T07:24:45.613Z,53.8
2017-07-31T07:26:07.148Z,53.7
2017-07-31T07:27:08.574Z,53.5
2017-07-31T07:28:30.091Z,54.2
2017-07-31T07:29:31.521Z,56.4
2017-07-31T07:30:53.053Z,54.4
2017-07-31T07:31:54.476Z,54.3
2017-07-31T07:33:15.996Z,53.8
2017-07-31T07:34:17.420Z,54.8
2017-07-31T07:35:38.988Z,55.0
2017-07-31T07:36:40.412Z,54.7
2017-07-31T07:38:02.029Z,56.2
2017-07-31T07:39:03.452Z,58.4
2017-07-31T07:40:24.987Z,56.1
2017-07-31T07:41:26.427Z,56.9
2017-07-31T07:42:47.943Z,56.8
2017-07-31T07:43:49.575Z,58.6
2017-07-31T07:45:11.111Z,59.5
2017-07-31T07:46:12.531Z,59.6
2017-07-31T07:47:34.152Z,60.4
2017-07-31T07:48:35.576Z,61.0
2017-07-31T07:49:57.113Z,59.8
2017-07-31T07:50:58.561Z,59.6
2017-07-31T07:52:20.124Z,60.0
2017-07-31T07:53:21.546Z,59.3
2017-07-31T07:54:43.078Z,58.7
2017-07-31T07:55:44.553Z,57.5
2017-07-31T07:57:06.071Z,58.9
2017-07-31T07:58:07.491Z,55.2
2017-07-31T07:59:29.059Z,56.9
2017-07-31T08:00:30.541Z,57.6
2017-07-31T08:01:52.101Z,58.0
2017-07-31T08:02:54.317Z,57.4
2017-07-31T08:04:15.801Z,58.1
2017-07-31T08:05:17.221Z,56.8
2017-07-31T08:06:38.750Z,55.4
2017-07-31T08:07:40.171Z,55.6
2017-07-31T08:09:01.687Z,55.6
2017-07-31T08:10:03.107Z,55.1
2017-07-31T08:11:24.639Z,54.3
2017-07-31T08:12:26.108Z,54.4
2017-07-31T08:13:47.680Z,55.9
2017-07-31T08:14:49.108Z,54.9
2017-07-31T08:16:10.644Z,55.1
2017-07-31T08:17:14.187Z,51.7
2017-07-31T08:18:35.841Z,53.7
2017-07-31T08:19:37.274Z,54.8
2017-07-31T08:20:58.883Z,54.0
2017-07-31T08:22:00.374Z,53.4
2017-07-31T08:23:21.890Z,51.9
2017-07-31T08:24:23.307Z,51.5
2017-07-31T08:25:45.351Z,51.0
2017-07-31T08:26:47.557Z,52.3
2017-07-31T08:28:09.120Z,53.7
2017-07-31T08:29:10.639Z,53.7
2017-07-31T08:30:32.171Z,53.1
2017-07-31T08:31:33.592Z,52.9
2017-07-31T08:32:55.159Z,52.4
2017-07-31T08:33:56.588Z,52.9
2017-07-31T08:35:18.136Z,52.3
2017-07-31T08:36:19.563Z,49.8
2017-07-31T08:37:41.085Z,52.8
2017-07-31T08:38:42.557Z,51.3
2017-07-31T08:40:04.108Z,49.0
2017-07-31T08:41:05.552Z,47.0
2017-07-31T08:42:27.070Z,48.9
2017-07-31T08:43:28.501Z,49.8
2017-07-31T08:44:50.068Z,50.4
2017-07-31T08:45:51.499Z,50.1
2017-07-31T08:47:13.121Z,50.1
2017-07-31T08:48:14.615Z,49.0
2017-07-31T08:49:36.128Z,47.2
2017-07-31T08:50:37.657Z,47.0
2017-07-31T08:51:59.253Z,46.6
2017-07-31T08:53:00.714Z,45.6
2017-07-31T08:54:22.324Z,47.1
2017-07-31T08:55:24.109Z,46.8
2017-07-31T08:56:45.721Z,45.8
2017-07-31T08:57:47.530Z,44.9
2017-07-31T08:59:09.045Z,46.1
2017-07-31T09:00:10.463Z,45.3
2017-07-31T09:01:32.051Z,43.2
2017-07-31T09:02:33.513Z,43.8
2017-07-31T09:03:55.065Z,42.4
2017-07-31T09:04:56.526Z,42.0
2017-07-31T09:06:18.098Z,42.7
2017-07-31T09:07:19.559Z,42.1
2017-07-31T09:08:41.100Z,43.9
2017-07-31T09:09:42.648Z,41.8
2017-07-31T09:11:04.185Z,42.9
2017-07-31T09:12:05.608Z,41.8
2017-07-31T09:13:27.132Z,42.3
2017-07-31T09:14:28.632Z,42.9
2017-07-31T09:15:50.166Z,43.0
2017-07-31T09:16:51.730Z,43.0
2017-07-31T09:18:13.257Z,42.1
2017-07-31T09:19:14.701Z,41.6
2017-07-31T09:20:37.008Z,41.2
2017-07-31T09:21:38.461Z,42.1
2017-07-31T09:22:59.977Z,43.6
2017-07-31T09:24:01.398Z,42.9
2017-07-31T09:25:22.937Z,42.3
2017-07-31T09:26:24.360Z,41.3
2017-07-31T09:27:45.875Z,42.3
2017-07-31T09:28:47.338Z,42.7
2017-07-31T09:30:09.600Z,42.3
2017-07-31T09:31:11.284Z,42.8
2017-07-31T09:32:32.821Z,42.0
2017-07-31T09:33:34.325Z,42.7
2017-07-31T09:34:55.798Z,42.0
2017-07-31T09:35:57.321Z,43.3
2017-07-31T09:37:18.861Z,42.8
2017-07-31T09:38:20.282Z,42.3
2017-07-31T09:39:41.800Z,43.2
2017-07-31T09:40:43.232Z,42.4
2017-07-31T09:42:04.842Z,41.5
2017-07-31T09:43:06.765Z,39.2
2017-07-31T09:44:28.314Z,40.9
2017-07-31T09:45:29.858Z,40.5
2017-07-31T09:46:54.319Z,41.5
2017-07-31T15:14:40.257Z,30.1
2017-07-31T15:15:41.678Z,30.0
2017-07-31T15:17:03.194Z,32.6
2017-07-31T15:18:04.614Z,32.4
2017-07-31T15:19:26.360Z,32.5
2017-07-31T15:20:27.791Z,31.6
2017-07-31T15:21:49.318Z,30.9
2017-07-31T15:22:50.750Z,31.6
2017-07-31T15:24:12.295Z,30.5
2017-07-31T15:25:13.737Z,30.5
2017-07-31T15:26:35.290Z,30.4
2017-07-31T15:27:36.720Z,30.5
2017-07-31T15:28:58.271Z,30.6
2017-07-31T15:29:59.702Z,29.5
2017-07-31T15:31:21.215Z,30.6
2017-07-31T15:32:22.638Z,29.3
2017-07-31T15:33:44.186Z,29.3
2017-07-31T15:34:45.609Z,27.1
2017-07-31T15:36:07.121Z,29.6
2017-07-31T15:37:08.562Z,30.7
2017-07-31T15:38:30.103Z,29.7
2017-07-31T15:39:31.520Z,28.7
2017-07-31T15:40:53.077Z,29.5
2017-07-31T15:41:54.744Z,28.5
2017-07-31T15:43:16.068Z,28.2
2017-07-31T15:44:17.491Z,29.2
2017-07-31T15:45:39.009Z,29.8
2017-07-31T15:46:40.431Z,29.2
2017-07-31T15:48:01.946Z,27.9
2017-07-31T15:49:03.373Z,27.9
2017-07-31T15:50:24.908Z,28.9
2017-07-31T15:51:26.331Z,28.4
2017-07-31T15:52:47.869Z,28.9
2017-07-31T15:53:49.293Z,29.7
2017-07-31T15:55:10.870Z,27.8
2017-07-31T15:56:12.292Z,27.2
2017-07-31T15:57:33.810Z,27.1
2017-07-31T15:58:35.230Z,27.1
2017-07-31T15:59:56.762Z,26.8
2017-07-31T16:00:58.196Z,27.4
2017-07-31T16:02:19.709Z,28.5
2017-07-31T16:03:21.133Z,29.1
2017-07-31T16:04:42.666Z,28.2
2017-07-31T16:05:44.089Z,27.8
2017-07-31T16:07:05.603Z,29.7
2017-07-31T16:08:07.028Z,30.4
2017-07-31T16:09:28.561Z,31.2
2017-07-31T16:10:29.982Z,31.3
2017-07-31T16:11:51.513Z,31.2
2017-07-31T16:12:52.935Z,31.5
2017-07-31T16:14:14.466Z,31.5
2017-07-31T16:15:15.895Z,30.8
2017-07-31T16:16:37.410Z,31.3
2017-07-31T16:17:38.828Z,31.6
2017-07-31T16:19:00.362Z,32.3
2017-07-31T16:20:01.785Z,30.6
2017-07-31T16:21:23.301Z,30.5
2017-07-31T16:22:24.722Z,29.3
2017-07-31T16:23:46.254Z,28.8
2017-07-31T16:24:47.692Z,29.2
2017-07-31T16:26:09.191Z,29.2
2017-07-31T16:27:10.613Z,29.7
2017-07-31T16:28:32.125Z,28.9
2017-07-31T16:29:33.548Z,28.9
2017-07-31T16:30:55.091Z,28.9
2017-07-31T16:31:56.506Z,29.5
2017-07-31T16:33:18.020Z,28.5
2017-07-31T16:34:19.444Z,28.3
2017-07-31T16:35:40.987Z,28.4
2017-07-31T16:36:42.403Z,28.1
2017-07-31T16:38:03.916Z,29.4
2017-07-31T16:39:05.355Z,29.6
2017-07-31T16:40:26.889Z,29.5
2017-07-31T16:41:28.310Z,29.8
2017-07-31T16:42:49.821Z,28.6
2017-07-31T16:43:51.270Z,28.6
2017-07-31T16:45:12.807Z,28.7
2017-07-31T16:46:14.228Z,29.0
2017-07-31T16:47:35.742Z,30.2
2017-07-31T16:48:37.163Z,29.4
2017-07-31T16:49:58.699Z,29.4
2017-07-31T16:51:00.116Z,29.2
2017-07-31T16:52:21.626Z,29.7
2017-07-31T16:53:23.049Z,29.5
2017-07-31T16:54:44.582Z,30.4
2017-07-31T16:55:46.006Z,30.6
2017-07-31T16:57:07.531Z,30.8
2017-07-31T16:58:09.002Z,31.2
2017-07-31T16:59:30.600Z,31.0
2017-07-31T17:00:32.032Z,30.6
2017-07-31T17:01:53.542Z,31.2
2017-07-31T17:02:54.964Z,30.6
2017-07-31T17:04:16.497Z,30.7
2017-07-31T17:05:17.923Z,31.1
2017-07-31T17:06:39.437Z,31.5
2017-07-31T17:07:40.857Z,32.4
2017-07-31T17:09:02.372Z,32.2
2017-07-31T17:10:03.807Z,31.4
2017-07-31T17:11:25.326Z,31.1
2017-07-31T17:12:26.753Z,31.2
2017-07-31T17:13:48.275Z,30.9
2017-07-31T17:14:49.694Z,31.1
2017-07-31T17:16:11.237Z,31.2
2017-07-31T17:17:12.660Z,30.7
2017-07-31T17:18:34.176Z,31.3
2017-07-31T17:19:35.649Z,31.2
2017-07-31T17:20:57.298Z,31.2
2017-07-31T17:21:58.714Z,30.1
2017-07-31T17:23:20.227Z,30.2
2017-07-31T17:24:21.651Z,30.2
2017-07-31T17:25:43.185Z,29.7
2017-07-31T17:26:44.607Z,30.3
2017-07-31T17:28:06.120Z,30.5
2017-07-31T17:29:07.542Z,31.0
2017-07-31T17:30:29.072Z,30.6
2017-07-31T17:31:30.495Z,29.8
2017-07-31T17:32:52.002Z,30.2
2017-07-31T17:33:53.425Z,31.1
2017-07-31T17:35:14.955Z,30.4
2017-07-31T17:36:16.381Z,31.2
2017-07-31T17:37:37.892Z,30.5
2017-07-31T17:38:39.310Z,30.6
2017-07-31T17:40:00.846Z,30.5
2017-07-31T17:41:02.551Z,30.7
2017-07-31T17:42:24.071Z,31.1
2017-07-31T17:43:25.493Z,31.4
2017-07-31T17:44:47.099Z,30.8
2017-07-31T17:45:48.519Z,30.1
2017-07-31T17:47:10.029Z,30.1
2017-07-31T17:48:11.451Z,30.5
2017-07-31T17:49:33.098Z,31.0
2017-07-31T17:50:34.522Z,30.8
2017-07-31T17:51:56.032Z,31.5
2017-07-31T17:52:57.456Z,31.1
2017-07-31T17:54:18.969Z,29.8
2017-07-31T17:55:20.650Z,29.8
2017-07-31T17:56:42.175Z,29.5
2017-07-31T17:57:43.598Z,29.3
2017-07-31T17:59:05.117Z,30.5
2017-07-31T18:00:06.540Z,30.2
2017-07-31T18:01:28.067Z,30.1
2017-07-31T18:02:29.494Z,30.2
2017-07-31T18:03:51.009Z,29.5
2017-07-31T18:04:52.431Z,29.5
2017-07-31T18:06:13.966Z,29.3
2017-07-31T18:07:15.387Z,28.2
2017-07-31T18:08:36.898Z,28.3
2017-07-31T18:09:38.320Z,27.6
2017-07-31T18:10:59.853Z,27.3
2017-07-31T18:12:01.273Z,27.3
2017-07-31T18:13:22.786Z,27.3
2017-07-31T18:14:24.209Z,27.4
2017-07-31T18:15:45.738Z,28.3
2017-07-31T18:16:47.161Z,28.2
2017-07-31T18:18:08.670Z,29.0
2017-07-31T18:19:10.153Z,28.5
2017-07-31T18:20:31.681Z,27.9
2017-07-31T18:21:33.103Z,27.5
2017-07-31T18:22:54.619Z,27.5
2017-07-31T18:23:56.038Z,27.2
2017-07-31T18:25:17.587Z,27.3
2017-07-31T18:26:19.013Z,27.5
2017-07-31T18:27:40.526Z,27.6
2017-07-31T18:28:41.948Z,27.4
2017-07-31T18:30:03.483Z,27.5
2017-07-31T18:31:04.904Z,27.4
2017-07-31T18:32:26.419Z,27.7
2017-07-31T18:33:27.840Z,27.4
2017-07-31T18:34:49.350Z,27.6
2017-07-31T18:35:50.772Z,28.3
2017-07-31T18:37:12.309Z,29.8
2017-07-31T18:38:13.727Z,29.3
2017-07-31T18:39:35.235Z,29.8
2017-07-31T18:40:36.656Z,30.3
2017-07-31T18:41:58.188Z,30.2
2017-07-31T18:42:59.612Z,30.6
2017-07-31T18:44:21.122Z,31.3
2017-07-31T18:45:22.547Z,32.3
2017-07-31T18:46:44.075Z,32.9
2017-07-31T18:47:45.496Z,32.2
2017-07-31T18:49:07.006Z,32.3
2017-07-31T18:50:08.426Z,32.7
2017-07-31T18:51:29.953Z,33.8
2017-07-31T18:52:31.378Z,34.0
2017-07-31T18:53:52.889Z,33.9
2017-07-31T18:54:54.308Z,34.3
2017-07-31T18:56:15.840Z,34.5
2017-07-31T18:57:17.259Z,35.0
2017-07-31T18:58:38.773Z,35.9
2017-07-31T18:59:40.191Z,35.8
2017-07-31T19:01:01.753Z,35.5
2017-07-31T19:02:03.172Z,35.5
2017-07-31T19:03:24.676Z,35.7
2017-07-31T19:04:26.095Z,35.9
2017-07-31T19:05:47.621Z,36.9
2017-07-31T19:06:49.083Z,37.4
2017-07-31T19:08:10.593Z,37.5
2017-07-31T19:09:12.013Z,37.4
2017-07-31T19:10:33.543Z,38.1
2017-07-31T19:11:34.962Z,38.0
2017-07-31T19:12:56.472Z,37.5
2017-07-31T19:13:57.922Z,38.0
2017-07-31T19:15:19.454Z,38.6
2017-07-31T19:16:20.874Z,38.8
2017-07-31T19:17:42.429Z,40.4
2017-07-31T19:18:43.918Z,40.7
2017-07-31T19:20:05.428Z,40.2
2017-07-31T19:21:06.845Z,40.3
2017-07-31T19:22:28.388Z,40.9
2017-07-31T19:23:29.803Z,41.4
2017-07-31T19:24:51.349Z,40.8
2017-07-31T19:25:52.770Z,41.1
2017-07-31T19:27:14.300Z,42.2
2017-07-31T19:28:15.717Z,42.7
2017-07-31T19:29:37.230Z,43.1
2017-07-31T19:30:38.645Z,44.3
2017-07-31T19:32:00.170Z,44.6
2017-07-31T19:33:01.586Z,44.0
2017-07-31T19:34:23.377Z,44.2
2017-07-31T19:35:25.066Z,45.1
2017-07-31T19:36:46.283Z,44.8
2017-07-31T19:37:47.701Z,44.9
2017-07-31T19:39:09.204Z,45.6
2017-07-31T19:40:10.619Z,45.2
2017-07-31T19:41:32.145Z,45.6
2017-07-31T19:42:33.561Z,45.7
2017-07-31T19:43:55.062Z,45.6
2017-07-31T19:44:56.477Z,46.2
2017-07-31T19:46:17.996Z,46.9
2017-07-31T19:47:19.423Z,47.1
2017-07-31T19:48:40.931Z,47.1
2017-07-31T19:49:42.353Z,48.4
2017-07-31T19:51:03.878Z,48.8
2017-07-31T19:52:05.293Z,49.2
2017-07-31T19:53:26.795Z,49.4
2017-07-31T19:54:28.210Z,49.3
2017-07-31T19:55:49.737Z,48.9
2017-07-31T19:56:51.153Z,48.6
2017-07-31T19:58:12.657Z,49.3
2017-07-31T19:59:14.070Z,48.7
2017-07-31T20:00:35.615Z,48.7
2017-07-31T20:01:37.031Z,49.0
2017-07-31T20:02:58.534Z,49.1
2017-07-31T20:03:59.951Z,49.5
2017-07-31T20:05:21.452Z,49.6
2017-07-31T20:06:22.867Z,49.7
2017-07-31T20:07:44.393Z,50.0
2017-07-31T20:08:45.810Z,50.4
2017-07-31T20:10:07.310Z,50.7
2017-07-31T20:11:08.724Z,50.3
2017-07-31T20:12:30.247Z,50.1
2017-07-31T20:13:31.663Z,50.2
2017-07-31T20:14:53.162Z,50.7
2017-07-31T20:15:54.579Z,50.3
2017-07-31T20:17:16.101Z,50.2
2017-07-31T20:18:17.516Z,50.2
2017-07-31T20:19:39.017Z,50.5
2017-07-31T20:20:40.430Z,51.5
2017-07-31T20:22:01.957Z,52.3
2017-07-31T20:23:03.370Z,51.9
2017-07-31T20:24:24.877Z,52.0
2017-07-31T20:25:26.292Z,51.9
2017-07-31T20:26:47.815Z,51.9
2017-07-31T20:27:49.229Z,51.9
2017-07-31T20:29:10.735Z,52.5
2017-07-31T20:30:12.149Z,52.7
2017-07-31T20:31:33.674Z,52.6
2017-07-31T20:32:35.094Z,52.7
2017-07-31T20:33:56.595Z,52.9
2017-07-31T20:34:58.008Z,53.3
2017-07-31T20:36:19.531Z,53.1
2017-07-31T20:37:20.944Z,53.5
2017-07-31T20:38:42.491Z,53.7
2017-07-31T20:39:43.903Z,53.7
2017-07-31T20:41:05.432Z,53.4
2017-07-31T20:42:06.843Z,53.7
2017-07-31T20:43:28.348Z,53.5
2017-07-31T20:44:29.761Z,53.5
2017-07-31T20:45:51.268Z,53.5
2017-07-31T20:46:52.752Z,53.3
2017-07-31T20:48:14.462Z,53.2
2017-07-31T20:49:15.876Z,53.8
2017-07-31T20:50:37.998Z,54.3
2017-07-31T20:51:39.353Z,54.9
2017-07-31T20:53:00.891Z,55.0
2017-07-31T20:54:02.309Z,55.3
2017-07-31T20:55:23.921Z,55.8
2017-07-31T20:56:25.455Z,56.5
2017-07-31T20:57:47.016Z,55.9
2017-07-31T20:58:48.435Z,56.1
2017-07-31T21:00:09.940Z,55.8
2017-07-31T21:01:11.355Z,55.5
2017-07-31T21:02:33.373Z,54.9
2017-07-31T21:03:34.785Z,54.6
2017-07-31T21:04:56.298Z,55.2
2017-07-31T21:05:57.709Z,55.2
2017-07-31T21:07:19.242Z,54.9
2017-07-31T21:08:20.687Z,55.2
2017-07-31T21:09:42.194Z,54.9
2017-07-31T21:10:43.608Z,54.2
2017-07-31T21:12:05.703Z,54.4
2017-07-31T21:13:07.115Z,54.2
2017-07-31T21:14:28.622Z,53.9
2017-07-31T21:15:30.043Z,54.5
2017-07-31T21:16:51.596Z,53.5
2017-07-31T21:17:53.010Z,54.0
2017-07-31T21:19:14.517Z,53.9
2017-07-31T21:20:15.970Z,53.6
2017-07-31T21:21:37.494Z,54.0
2017-07-31T21:22:38.908Z,54.4
2017-07-31T21:24:00.626Z,54.4
2017-07-31T21:25:02.018Z,53.8
2017-07-31T21:26:23.545Z,53.9
2017-07-31T21:27:25.055Z,53.8
2017-07-31T21:28:46.903Z,53.2
2017-07-31T21:29:48.315Z,53.6
2017-07-31T21:31:09.819Z,53.1
2017-07-31T21:32:11.232Z,53.4
2017-07-31T21:33:33.074Z,53.7
2017-07-31T21:34:34.513Z,53.6
2017-07-31T21:35:56.174Z,53.7
2017-07-31T21:36:57.574Z,53.5
2017-07-31T21:38:19.098Z,53.6
2017-07-31T21:39:20.513Z,53.9
2017-07-31T21:40:42.019Z,53.9
2017-07-31T21:41:43.432Z,54.4
2017-07-31T21:43:04.955Z,55.0
2017-07-31T21:44:06.374Z,55.0
2017-07-31T21:45:27.876Z,54.8
2017-07-31T21:46:29.286Z,54.9
2017-07-31T21:47:50.814Z,54.8
2017-07-31T21:48:52.227Z,54.7
2017-07-31T21:50:13.731Z,55.2
2017-07-31T21:51:15.142Z,55.1
2017-07-31T21:52:36.673Z,54.4
2017-07-31T21:53:38.085Z,54.4
2017-07-31T21:54:59.593Z,54.4
2017-07-31T21:56:01.006Z,55.0
2017-07-31T21:57:22.532Z,54.3
2017-07-31T21:58:23.947Z,54.2
2017-07-31T21:59:45.461Z,54.1
2017-07-31T22:00:46.869Z,54.2
2017-07-31T22:02:08.395Z,54.8
2017-07-31T22:03:09.810Z,55.8
2017-07-31T22:04:31.316Z,55.5
2017-07-31T22:05:32.727Z,55.8
2017-07-31T22:06:54.253Z,56.0
2017-07-31T22:07:55.665Z,56.4
2017-07-31T22:09:17.191Z,56.1
2017-07-31T22:10:18.612Z,55.4
2017-07-31T22:11:40.161Z,55.5
2017-07-31T22:12:41.573Z,55.2
2017-07-31T22:14:03.078Z,54.6
2017-07-31T22:15:04.490Z,55.0
2017-07-31T22:16:25.997Z,55.0
2017-07-31T22:17:27.407Z,54.8
2017-07-31T22:18:49.428Z,55.2
2017-07-31T22:19:50.839Z,54.6
2017-07-31T22:21:12.351Z,55.0
2017-07-31T22:22:13.761Z,54.7
2017-07-31T22:23:35.287Z,54.9
2017-07-31T22:24:36.701Z,54.9
2017-07-31T22:25:58.208Z,54.0
2017-07-31T22:26:59.620Z,53.6
2017-07-31T22:28:21.148Z,53.4
2017-07-31T22:29:22.562Z,53.6
2017-07-31T22:30:44.069Z,53.2
2017-07-31T22:31:45.481Z,52.9
2017-07-31T22:33:07.005Z,53.0
2017-07-31T22:34:08.419Z,52.4
2017-07-31T22:35:30.427Z,52.4
2017-07-31T22:36:31.842Z,52.3
2017-07-31T22:37:53.861Z,52.2
2017-07-31T22:38:55.274Z,52.1
2017-07-31T22:40:16.780Z,52.2
2017-07-31T22:41:18.194Z,52.2
2017-07-31T22:42:39.720Z,52.3
2017-07-31T22:43:41.134Z,52.2
2017-07-31T22:45:03.136Z,52.2
2017-07-31T22:46:04.556Z,52.6
2017-07-31T22:47:26.076Z,52.3
2017-07-31T22:48:27.489Z,53.0
2017-07-31T22:49:48.996Z,52.7
2017-07-31T22:50:50.413Z,53.0
2017-07-31T22:52:11.932Z,53.0
2017-07-31T22:53:13.345Z,53.2
2017-07-31T22:54:34.851Z,53.5
2017-07-31T22:55:36.264Z,53.3
2017-07-31T22:56:57.770Z,53.5
2017-07-31T22:57:59.183Z,53.2
2017-07-31T22:59:20.710Z,52.7
2017-07-31T23:00:22.123Z,52.4
2017-07-31T23:01:44.121Z,52.3
2017-07-31T23:02:45.535Z,52.1
2017-07-31T23:04:07.060Z,52.4
2017-07-31T23:05:08.473Z,52.3
2017-07-31T23:06:30.473Z,52.1
2017-07-31T23:07:31.884Z,52.1
2017-07-31T23:08:53.409Z,52.1
2017-07-31T23:09:54.820Z,52.0
2017-07-31T23:11:16.330Z,51.6
2017-07-31T23:12:17.742Z,52.5
2017-07-31T23:13:39.266Z,52.1
2017-07-31T23:14:40.680Z,52.1
2017-07-31T23:16:02.188Z,52.3
2017-07-31T23:17:03.599Z,52.3
2017-07-31T23:18:25.129Z,52.1
2017-07-31T23:19:26.541Z,51.7
2017-07-31T23:20:48.045Z,51.8
2017-07-31T23:21:49.457Z,52.0
2017-07-31T23:23:10.981Z,51.4
2017-07-31T23:24:12.396Z,51.4
2017-07-31T23:25:33.905Z,50.8
2017-07-31T23:26:35.315Z,51.3
2017-07-31T23:27:56.836Z,50.9
2017-07-31T23:28:58.251Z,50.9
2017-07-31T23:30:19.781Z,51.1
2017-07-31T23:31:21.171Z,51.2
2017-07-31T23:32:42.701Z,51.3
2017-07-31T23:33:44.115Z,50.9
2017-07-31T23:35:05.625Z,51.1
2017-07-31T23:36:07.038Z,51.3
2017-07-31T23:37:28.564Z,50.4
2017-07-31T23:38:29.979Z,50.7
2017-07-31T23:39:51.485Z,51.2
2017-07-31T23:40:52.902Z,51.4
2017-07-31T23:42:14.407Z,50.8
2017-07-31T23:43:15.819Z,50.6
2017-07-31T23:44:37.345Z,50.7
2017-07-31T23:45:38.758Z,52.4
2017-07-31T23:47:00.259Z,52.2
2017-07-31T23:48:01.673Z,51.1
2017-07-31T23:49:23.199Z,50.4
2017-07-31T23:50:24.613Z,51.0
2017-07-31T23:51:46.119Z,51.4
2017-07-31T23:52:47.530Z,51.1
2017-07-31T23:54:09.054Z,51.3
2017-07-31T23:55:10.468Z,51.0
2017-07-31T23:56:31.976Z,51.0
2017-07-31T23:57:33.388Z,51.0
2017-07-31T23:58:54.914Z,51.5
2017-07-31T23:59:56.326Z,52.0
